METAR AND TAF INFORMATION
METAR FOR UHSS
ADDS - METARS form results

(0420 UTC 26 February 2020)
Data provider http://aviationweather.gov/metar/data/
 
METAR text: UHSS 260400Z 00000MPS 9999 FEW040CB M03/M12 Q1021 R01/810260 NOSIG RMK QFE765/1020
Conditions at: UHSS (JUZNO-SAHALINSK , RU) observed 0400 UTC 26 February 2020
Temperature: -3.0°C (27°F)
Dewpoint: -12.0°C (10°F) [RH = 50%]
Pressure (altimeter): 30.15 inches Hg (1021.0 mb)
Winds: calm
Visibility: 6 or more miles (10+ km)
Ceiling: at least 12,000 feet AGL
Clouds: few clouds at 4000 feet AGL
Weather: no significant weather observed at this time

METAR text: UHSS 260330Z 00000MPS 9999 SCT040 M03/M14 Q1022 R01/810260 NOSIG RMK QFE765/1020
Conditions at: UHSS (JUZNO-SAHALINSK , RU) observed 0330 UTC 26 February 2020
Temperature: -3.0°C (27°F)
Dewpoint: -14.0°C ( 7°F) [RH = 42%]
Pressure (altimeter): 30.18 inches Hg (1022.0 mb)
Winds: calm
Visibility: 6 or more miles (10+ km)
Ceiling: at least 12,000 feet AGL
Clouds: scattered clouds at 4000 feet AGL
Weather: no significant weather observed at this time

Forecast for: UHSS (JUZNO-SAHALINSK , RU)
Text: TAF UHSS 260150Z 2603/2709 33003MPS 9999 BKN030CB
Forecast period: 0300 UTC 26 February 2020 to 0900 UTC 27 February 2020
Forecast type: FROM: standard forecast or significant change
Winds: from the NNW (330 degrees) at 7 MPH (6 knots; 3.1 m/s)
Visibility: 6 or more miles 10+ km)
Ceiling: 3000 feet AGL
Clouds: broken clouds at 3000 feet AGL
Weather: no significant weather forecast for this period

 AIRPORT MAP

 RUNWAY INFORMATION
Runway 01 Runway length 11155 ft Runway width 148 ft
Runway elevation 44 ft Runway displaced threshold 0 ft Runway heading 1
Runway 19 Runway length 11155 ft Runway width 148 ft
Runway elevation 49 ft Runway displaced threshold 2080 ft Runway heading 181

 AIRPORT FREQUENCIES
Type GCA Name RDR Frequency 120.6 MHZ
Type TWR Name TWR Frequency 120.6 MHZ

 AIRPORT NEAR NAVIGATION AIDS
Type NDB Name Khomutovo Frequency 505 KHZ
Type NDB Name Khomutovo Frequency 505 KHZ



Powered by Virtual Airlines Manager [v2.6.2]